createdAt,value
2022-08-29T00:00:08.114Z,24.20
2022-08-29T00:05:25.164Z,24.20
2022-08-29T00:10:31.580Z,24.20
2022-08-29T00:15:41.736Z,24.20
2022-08-29T00:20:48.720Z,24.20
2022-08-29T00:25:53.147Z,24.20
2022-08-29T00:30:56.175Z,24.20
2022-08-29T00:35:59.247Z,24.20
2022-08-29T00:41:04.470Z,24.20
2022-08-29T00:46:28.870Z,24.10
2022-08-29T00:51:33.103Z,24.20
2022-08-29T00:56:39.275Z,24.10
2022-08-29T01:01:42.411Z,24.10
2022-08-29T01:06:45.878Z,24.10
2022-08-29T01:12:07.740Z,24.10
2022-08-29T01:17:11.733Z,24.10
2022-08-29T01:22:34.880Z,24.10
2022-08-29T01:27:42.884Z,24.10
2022-08-29T01:32:45.954Z,24.10
2022-08-29T01:37:49.010Z,24.10
2022-08-29T01:42:54.540Z,24.10
2022-08-29T01:48:00.758Z,24.10
2022-08-29T01:53:06.068Z,24.10
2022-08-29T01:58:10.562Z,24.10
2022-08-29T02:03:13.662Z,24.10
2022-08-29T02:08:16.700Z,24.10
2022-08-29T02:13:21.135Z,24.10
2022-08-29T02:18:24.410Z,24.10
2022-08-29T02:23:31.143Z,24.10
2022-08-29T02:28:37.580Z,24.10
2022-08-29T02:33:40.827Z,24.10
2022-08-29T02:38:44.239Z,24.10
2022-08-29T02:43:48.899Z,24.10
2022-08-29T02:48:59.981Z,24.00
2022-08-29T02:54:05.238Z,24.10
2022-08-29T02:59:09.845Z,24.00
2022-08-29T03:04:12.923Z,24.00
2022-08-29T03:09:15.959Z,24.00
2022-08-29T03:14:20.366Z,24.10
2022-08-29T03:19:23.374Z,24.00
2022-08-29T03:24:27.166Z,24.10
2022-08-29T03:29:31.693Z,24.00
2022-08-29T03:34:35.152Z,24.00
2022-08-29T03:39:38.959Z,24.00
2022-08-29T03:44:43.573Z,24.00
2022-08-29T03:49:46.623Z,24.00
2022-08-29T03:54:49.686Z,24.00
2022-08-29T03:59:54.353Z,24.00
2022-08-29T04:05:09.847Z,23.90
2022-08-29T04:10:16.792Z,23.90
2022-08-29T04:15:21.493Z,23.90
2022-08-29T04:20:25.972Z,23.90
2022-08-29T04:25:37.139Z,23.90
2022-08-29T04:30:51.512Z,23.90
2022-08-29T04:35:55.908Z,23.90
2022-08-29T04:40:59.014Z,23.80
2022-08-29T04:46:03.821Z,23.90
2022-08-29T04:51:07.247Z,23.80
2022-08-29T04:56:14.007Z,23.80
2022-08-29T05:01:23.008Z,23.80
2022-08-29T05:06:26.608Z,23.80
2022-08-29T05:11:32.371Z,23.80
2022-08-29T05:16:37.847Z,23.80
2022-08-29T05:21:41.864Z,23.50
2022-08-29T05:26:46.313Z,23.50
2022-08-29T05:31:50.741Z,23.30
2022-08-29T05:36:53.807Z,23.10
2022-08-29T05:41:57.364Z,23.00
2022-08-29T05:47:02.217Z,23.00
2022-08-29T05:52:06.206Z,23.10
2022-08-29T05:57:13.183Z,23.20
2022-08-29T06:02:21.066Z,23.20
2022-08-29T06:07:24.255Z,23.30
2022-08-29T06:12:27.287Z,23.30
2022-08-29T06:17:31.722Z,23.30
2022-08-29T06:22:40.013Z,23.40
2022-08-29T06:27:43.418Z,23.50
2022-08-29T06:32:47.846Z,23.70
2022-08-29T06:37:50.900Z,23.70
2022-08-29T06:42:53.918Z,23.80
2022-08-29T06:47:58.322Z,23.90
2022-08-29T06:53:26.116Z,24.00
2022-08-29T06:58:24.387Z,24.10
2022-08-29T07:03:29.002Z,24.20
2022-08-29T07:08:33.728Z,24.40
2022-08-29T07:13:36.807Z,24.40
2022-08-29T07:18:41.541Z,24.40
2022-08-29T07:23:45.044Z,24.40
2022-08-29T07:28:49.001Z,24.50
2022-08-29T07:34:01.794Z,24.50
2022-08-29T07:39:08.806Z,24.50
2022-08-29T07:44:12.910Z,24.50
2022-08-29T07:49:17.351Z,24.50
2022-08-29T07:54:20.463Z,24.60
2022-08-29T07:59:23.544Z,24.70
2022-08-29T08:04:28.323Z,24.70
2022-08-29T08:09:31.925Z,24.70
2022-08-29T08:14:35.498Z,24.90
2022-08-29T08:19:40.185Z,25.00
2022-08-29T08:24:43.243Z,25.00
2022-08-29T08:29:46.280Z,25.10
2022-08-29T08:34:54.369Z,25.10
2022-08-29T08:39:58.193Z,25.10
2022-08-29T08:45:07.598Z,25.10
2022-08-29T08:50:19.449Z,25.20
2022-08-29T08:55:30.018Z,25.20
2022-08-29T09:00:44.644Z,25.30
2022-08-29T09:06:08.741Z,25.30
2022-08-29T09:11:22.497Z,25.40
2022-08-29T09:16:31.564Z,25.30
2022-08-29T09:21:44.636Z,25.40
2022-08-29T09:26:47.757Z,25.40
2022-08-29T09:32:08.417Z,25.40
2022-08-29T09:37:25.111Z,25.40
2022-08-29T09:42:33.788Z,25.40
2022-08-29T09:47:36.874Z,25.40
2022-08-29T09:52:52.620Z,25.40
2022-08-29T09:58:00.636Z,25.40
2022-08-29T10:03:06.508Z,25.40
2022-08-29T10:08:27.250Z,25.50
2022-08-29T10:13:38.157Z,25.40
2022-08-29T10:18:45.929Z,25.50
2022-08-29T10:24:01.555Z,25.60
2022-08-29T10:29:14.467Z,25.60
2022-08-29T10:34:31.781Z,25.70
2022-08-29T10:39:43.955Z,25.70
2022-08-29T10:45:01.495Z,25.70
2022-08-29T10:50:40.735Z,25.70
2022-08-29T10:55:53.467Z,25.70
2022-08-29T11:01:06.872Z,25.80
2022-08-29T11:06:16.982Z,25.80
2022-08-29T11:11:27.387Z,25.90
2022-08-29T11:16:35.147Z,25.90
2022-08-29T11:21:42.936Z,25.90
2022-08-29T11:26:58.446Z,25.90
2022-08-29T11:32:09.828Z,25.90
2022-08-29T11:37:50.247Z,26.00
2022-08-29T11:42:55.379Z,26.00
2022-08-29T11:48:01.739Z,26.00
2022-08-29T11:53:10.559Z,26.10
2022-08-29T11:58:46.143Z,26.10
2022-08-29T12:03:49.606Z,26.10
2022-08-29T12:09:02.860Z,26.10
2022-08-29T12:14:09.021Z,26.10
2022-08-29T12:19:12.145Z,26.10
2022-08-29T12:24:40.407Z,26.10
2022-08-29T12:29:45.854Z,26.00
2022-08-29T12:35:11.147Z,26.00
2022-08-29T12:40:48.279Z,25.90
2022-08-29T12:45:53.471Z,25.90
2022-08-29T12:50:56.606Z,25.90
2022-08-29T12:56:01.783Z,25.80
2022-08-29T13:01:09.159Z,25.80
2022-08-29T13:06:15.681Z,25.90
2022-08-29T13:11:22.119Z,26.00
2022-08-29T13:16:31.287Z,26.00
2022-08-29T13:21:35.201Z,26.10
2022-08-29T13:26:50.634Z,26.10
2022-08-29T13:32:20.602Z,26.10
2022-08-29T13:37:31.231Z,26.00
2022-08-29T13:42:34.955Z,26.00
2022-08-29T13:47:58.919Z,26.00
2022-08-29T13:53:02.161Z,26.10
2022-08-29T13:58:05.282Z,26.10
2022-08-29T14:03:12.202Z,26.20
2022-08-29T14:08:17.000Z,26.20
2022-08-29T14:13:20.242Z,26.20
2022-08-29T14:18:24.620Z,26.20
2022-08-29T14:23:27.720Z,26.20
2022-08-29T14:28:30.979Z,26.10
2022-08-29T14:33:35.368Z,26.10
2022-08-29T14:38:38.471Z,26.10
2022-08-29T14:43:41.485Z,26.10
2022-08-29T14:48:45.880Z,26.10
2022-08-29T14:53:54.111Z,26.10
2022-08-29T14:58:58.094Z,26.10
2022-08-29T15:04:02.630Z,26.00
2022-08-29T15:09:06.154Z,26.10
2022-08-29T15:14:09.199Z,26.20
2022-08-29T15:24:38.407Z,26.20
2022-08-29T15:29:41.777Z,26.30
2022-08-29T15:34:46.211Z,26.20
2022-08-29T15:39:49.934Z,26.20
2022-08-29T15:44:58.967Z,26.10
2022-08-29T15:50:04.155Z,26.10
2022-08-29T15:55:08.013Z,26.10
2022-08-29T16:00:12.316Z,26.20
2022-08-29T16:05:21.319Z,26.30
2022-08-29T16:10:24.414Z,26.30
2022-08-29T16:15:30.897Z,26.40
2022-08-29T16:20:37.951Z,26.40
2022-08-29T16:25:43.028Z,26.40
2022-08-29T16:30:49.735Z,26.40
2022-08-29T16:35:54.443Z,26.40
2022-08-29T16:40:57.545Z,26.40
2022-08-29T16:46:00.639Z,26.40
2022-08-29T16:51:05.452Z,26.40
2022-08-29T16:56:14.076Z,26.40
2022-08-29T17:01:18.054Z,26.40
2022-08-29T17:06:22.587Z,26.40
2022-08-29T17:11:24.922Z,26.30
2022-08-29T17:16:28.513Z,26.30
2022-08-29T17:21:33.219Z,26.20
2022-08-29T17:26:37.801Z,26.20
2022-08-29T17:31:43.855Z,26.20
2022-08-29T17:36:49.712Z,26.10
2022-08-29T17:41:53.368Z,26.10
2022-08-29T17:46:56.663Z,26.10
2022-08-29T17:52:01.112Z,26.00
2022-08-29T17:57:05.071Z,26.00
2022-08-29T18:02:08.414Z,26.00
2022-08-29T18:07:12.852Z,26.00
2022-08-29T18:12:16.134Z,25.90
2022-08-29T18:17:19.302Z,25.90
2022-08-29T18:22:23.666Z,25.80
2022-08-29T18:27:27.887Z,25.80
2022-08-29T18:32:36.521Z,25.80
2022-08-29T18:37:42.031Z,25.70
2022-08-29T18:42:45.071Z,25.80
2022-08-29T18:47:48.175Z,25.70
2022-08-29T18:52:52.839Z,25.70
2022-08-29T18:57:56.177Z,25.70
2022-08-29T19:03:01.031Z,25.70
2022-08-29T19:08:05.879Z,25.70
2022-08-29T19:13:09.131Z,25.70
2022-08-29T19:18:12.587Z,25.70
2022-08-29T19:23:18.383Z,25.70
2022-08-29T19:28:22.752Z,25.60
2022-08-29T19:33:26.183Z,25.60
2022-08-29T19:38:31.474Z,25.40
2022-08-29T19:43:35.703Z,25.40
2022-08-29T19:48:38.867Z,25.30
2022-08-29T19:53:43.829Z,25.40
2022-08-29T19:58:46.962Z,25.40
2022-08-29T20:03:52.961Z,25.40
2022-08-29T20:08:58.507Z,25.40
2022-08-29T20:14:02.163Z,25.40
2022-08-29T20:19:06.215Z,25.40
2022-08-29T20:24:10.910Z,25.30
2022-08-29T20:29:20.583Z,25.40
2022-08-29T20:34:28.299Z,25.40
2022-08-29T20:39:32.799Z,25.40
2022-08-29T20:44:38.547Z,25.40
2022-08-29T20:49:43.900Z,25.40
2022-08-29T20:54:48.596Z,25.40
2022-08-29T20:59:51.651Z,25.00
2022-08-29T21:05:12.046Z,25.00
2022-08-29T21:10:16.498Z,24.90
2022-08-29T21:15:19.778Z,24.80
2022-08-29T21:20:23.135Z,24.80
2022-08-29T21:25:27.591Z,24.80
2022-08-29T21:30:31.214Z,24.60
2022-08-29T21:35:34.283Z,24.60
2022-08-29T21:40:50.558Z,24.70
2022-08-29T21:45:54.237Z,24.80
2022-08-29T21:50:57.607Z,24.80
2022-08-29T21:56:02.056Z,24.80
2022-08-29T22:01:05.960Z,24.90
2022-08-29T22:06:11.326Z,24.90
2022-08-29T22:11:18.515Z,24.90
2022-08-29T22:16:31.282Z,24.90
2022-08-29T22:21:38.169Z,25.00
2022-08-29T22:26:43.730Z,25.00
2022-08-29T22:31:47.195Z,25.00
2022-08-29T22:36:50.279Z,25.00
2022-08-29T22:41:55.447Z,25.00
2022-08-29T22:46:58.722Z,25.00
2022-08-29T22:52:02.201Z,25.00
2022-08-29T22:57:09.285Z,25.10
2022-08-29T23:02:13.908Z,25.10
2022-08-29T23:07:17.212Z,25.00
2022-08-29T23:12:21.663Z,25.00
2022-08-29T23:17:24.748Z,25.00
2022-08-29T23:22:27.824Z,25.10
2022-08-29T23:27:34.076Z,25.10
2022-08-29T23:32:37.647Z,25.00
2022-08-29T23:37:40.735Z,25.00
2022-08-29T23:42:45.596Z,25.00
2022-08-29T23:47:48.656Z,25.00
2022-08-29T23:52:51.734Z,25.00
2022-08-29T23:57:56.169Z,25.00
